sensor_id;sensor_type;location;lat;lon;timestamp;P1;durP1;ratioP1;P2;durP2;ratioP2
65092;SDS011;52025;50.288;2.794;2022-07-19T04:33:14;5.35;;;2.05;;
65092;SDS011;52025;50.288;2.794;2022-07-19T04:35:40;3.72;;;1.73;;
65092;SDS011;52025;50.288;2.794;2022-07-19T04:38:08;5.30;;;2.20;;
65092;SDS011;52025;50.288;2.794;2022-07-19T04:40:33;5.97;;;2.47;;
65092;SDS011;52025;50.288;2.794;2022-07-19T04:42:59;6.65;;;2.35;;
65092;SDS011;52025;50.288;2.794;2022-07-19T04:45:24;4.45;;;2.33;;
65092;SDS011;52025;50.288;2.794;2022-07-19T04:47:52;8.52;;;2.60;;
65092;SDS011;52025;50.288;2.794;2022-07-19T04:50:18;8.07;;;2.35;;
65092;SDS011;52025;50.288;2.794;2022-07-19T04:52:45;8.25;;;2.45;;
65092;SDS011;52025;50.288;2.794;2022-07-19T04:55:11;8.25;;;2.90;;
65092;SDS011;52025;50.288;2.794;2022-07-19T04:57:36;8.20;;;2.50;;
65092;SDS011;52025;50.288;2.794;2022-07-19T05:00:05;10.07;;;3.17;;
65092;SDS011;52025;50.288;2.794;2022-07-19T05:02:34;9.52;;;3.20;;
65092;SDS011;52025;50.288;2.794;2022-07-19T05:04:59;8.15;;;2.35;;
65092;SDS011;52025;50.288;2.794;2022-07-19T05:07:24;4.65;;;1.63;;
65092;SDS011;52025;50.288;2.794;2022-07-19T05:09:52;5.25;;;1.63;;
65092;SDS011;52025;50.288;2.794;2022-07-19T05:12:17;3.60;;;1.65;;
65092;SDS011;52025;50.288;2.794;2022-07-19T05:14:43;8.57;;;2.28;;
65092;SDS011;52025;50.288;2.794;2022-07-19T05:17:08;6.83;;;2.10;;
65092;SDS011;52025;50.288;2.794;2022-07-19T05:19:33;7.70;;;2.40;;
65092;SDS011;52025;50.288;2.794;2022-07-19T05:28:23;4.30;;;1.65;;
65092;SDS011;52025;50.288;2.794;2022-07-19T05:31:12;4.07;;;1.40;;
65092;SDS011;52025;50.288;2.794;2022-07-19T05:33:40;3.28;;;1.38;;
65092;SDS011;52025;50.288;2.794;2022-07-19T05:36:08;3.75;;;1.50;;
65092;SDS011;52025;50.288;2.794;2022-07-19T05:38:37;3.97;;;1.60;;
65092;SDS011;52025;50.288;2.794;2022-07-19T05:41:03;2.33;;;1.27;;
65092;SDS011;52025;50.288;2.794;2022-07-19T05:43:34;5.43;;;2.20;;
65092;SDS011;52025;50.288;2.794;2022-07-19T05:46:00;7.50;;;2.70;;
65092;SDS011;52025;50.288;2.794;2022-07-19T05:48:25;6.22;;;2.72;;
65092;SDS011;52025;50.288;2.794;2022-07-19T05:50:50;3.78;;;2.13;;
65092;SDS011;52025;50.288;2.794;2022-07-19T05:53:16;7.93;;;2.33;;
65092;SDS011;52025;50.288;2.794;2022-07-19T05:55:42;7.70;;;2.15;;
65092;SDS011;52025;50.288;2.794;2022-07-19T05:58:08;3.55;;;1.75;;
65092;SDS011;52025;50.288;2.794;2022-07-19T06:00:33;3.78;;;1.60;;
65092;SDS011;52025;50.288;2.794;2022-07-19T06:02:58;3.28;;;1.35;;
65092;SDS011;52025;50.288;2.794;2022-07-19T06:05:23;2.53;;;1.23;;
65092;SDS011;52025;50.288;2.794;2022-07-19T06:07:49;2.28;;;1.25;;
65092;SDS011;52025;50.288;2.794;2022-07-19T06:10:14;2.28;;;1.20;;
65092;SDS011;52025;50.288;2.794;2022-07-19T06:12:39;1.95;;;1.08;;
65092;SDS011;52025;50.288;2.794;2022-07-19T06:15:07;2.15;;;1.10;;
65092;SDS011;52025;50.288;2.794;2022-07-19T06:17:33;2.20;;;1.10;;
65092;SDS011;52025;50.288;2.794;2022-07-19T06:19:58;2.60;;;1.20;;
65092;SDS011;52025;50.288;2.794;2022-07-19T06:22:23;2.03;;;1.02;;
65092;SDS011;52025;50.288;2.794;2022-07-19T06:24:48;1.85;;;0.90;;
65092;SDS011;52025;50.288;2.794;2022-07-19T06:27:14;1.25;;;0.80;;
65092;SDS011;52025;50.288;2.794;2022-07-19T06:29:39;1.90;;;0.80;;
65092;SDS011;52025;50.288;2.794;2022-07-19T06:32:05;1.98;;;1.20;;
65092;SDS011;52025;50.288;2.794;2022-07-19T06:34:32;2.25;;;1.02;;
65092;SDS011;52025;50.288;2.794;2022-07-19T06:36:59;1.48;;;0.73;;
65092;SDS011;52025;50.288;2.794;2022-07-19T06:39:26;1.73;;;0.90;;
65092;SDS011;52025;50.288;2.794;2022-07-19T06:41:52;1.73;;;0.93;;
65092;SDS011;52025;50.288;2.794;2022-07-19T06:44:17;2.13;;;1.20;;
65092;SDS011;52025;50.288;2.794;2022-07-19T06:46:44;1.30;;;0.80;;
65092;SDS011;52025;50.288;2.794;2022-07-19T06:49:10;2.25;;;0.80;;
65092;SDS011;52025;50.288;2.794;2022-07-19T06:51:35;3.17;;;0.90;;
65092;SDS011;52025;50.288;2.794;2022-07-19T06:54:00;2.25;;;0.95;;
65092;SDS011;52025;50.288;2.794;2022-07-19T06:56:26;2.45;;;1.08;;
65092;SDS011;52025;50.288;2.794;2022-07-19T06:58:51;5.40;;;2.28;;
65092;SDS011;52025;50.288;2.794;2022-07-19T07:01:16;3.05;;;1.20;;
65092;SDS011;52025;50.288;2.794;2022-07-19T07:03:43;1.73;;;0.90;;
65092;SDS011;52025;50.288;2.794;2022-07-19T07:06:08;2.67;;;1.13;;
65092;SDS011;52025;50.288;2.794;2022-07-19T07:08:33;2.28;;;0.80;;
65092;SDS011;52025;50.288;2.794;2022-07-19T07:10:59;2.95;;;0.80;;
65092;SDS011;52025;50.288;2.794;2022-07-19T07:13:26;1.63;;;0.90;;
65092;SDS011;52025;50.288;2.794;2022-07-19T07:15:51;2.00;;;0.95;;
65092;SDS011;52025;50.288;2.794;2022-07-19T07:18:17;1.10;;;0.77;;
65092;SDS011;52025;50.288;2.794;2022-07-19T07:20:43;1.27;;;0.80;;
65092;SDS011;52025;50.288;2.794;2022-07-19T07:23:11;2.60;;;0.88;;
65092;SDS011;52025;50.288;2.794;2022-07-19T07:25:36;0.80;;;0.60;;
65092;SDS011;52025;50.288;2.794;2022-07-19T07:28:04;3.20;;;1.05;;
65092;SDS011;52025;50.288;2.794;2022-07-19T07:30:29;1.35;;;0.70;;
65092;SDS011;52025;50.288;2.794;2022-07-19T07:32:54;1.60;;;0.90;;
65092;SDS011;52025;50.288;2.794;2022-07-19T07:35:20;2.33;;;0.88;;
65092;SDS011;52025;50.288;2.794;2022-07-19T07:37:45;3.00;;;0.93;;
65092;SDS011;52025;50.288;2.794;2022-07-19T07:40:11;1.38;;;0.70;;
65092;SDS011;52025;50.288;2.794;2022-07-19T07:42:36;2.22;;;0.98;;
65092;SDS011;52025;50.288;2.794;2022-07-19T07:45:02;2.78;;;1.10;;
65092;SDS011;52025;50.288;2.794;2022-07-19T07:47:27;2.95;;;0.90;;
65092;SDS011;52025;50.288;2.794;2022-07-19T07:49:52;5.47;;;1.20;;
65092;SDS011;52025;50.288;2.794;2022-07-19T07:52:18;2.78;;;1.15;;
65092;SDS011;52025;50.288;2.794;2022-07-19T07:54:43;2.53;;;1.23;;
65092;SDS011;52025;50.288;2.794;2022-07-19T07:57:08;4.40;;;1.40;;
65092;SDS011;52025;50.288;2.794;2022-07-19T07:59:34;3.97;;;1.10;;
65092;SDS011;52025;50.288;2.794;2022-07-19T08:01:59;3.92;;;1.30;;
65092;SDS011;52025;50.288;2.794;2022-07-19T08:04:25;4.63;;;1.70;;
65092;SDS011;52025;50.288;2.794;2022-07-19T08:06:50;4.13;;;1.50;;
65092;SDS011;52025;50.288;2.794;2022-07-19T08:09:15;4.60;;;1.73;;
65092;SDS011;52025;50.288;2.794;2022-07-19T08:11:40;5.30;;;1.85;;
65092;SDS011;52025;50.288;2.794;2022-07-19T08:14:06;3.90;;;1.27;;
65092;SDS011;52025;50.288;2.794;2022-07-19T08:16:31;2.95;;;1.23;;
65092;SDS011;52025;50.288;2.794;2022-07-19T08:18:56;3.33;;;1.30;;
65092;SDS011;52025;50.288;2.794;2022-07-19T08:21:23;3.53;;;1.20;;
65092;SDS011;52025;50.288;2.794;2022-07-19T08:23:48;5.85;;;1.90;;
65092;SDS011;52025;50.288;2.794;2022-07-19T08:26:13;5.35;;;1.55;;
65092;SDS011;52025;50.288;2.794;2022-07-19T08:28:38;2.70;;;1.30;;
65092;SDS011;52025;50.288;2.794;2022-07-19T08:31:04;4.68;;;1.50;;
65092;SDS011;52025;50.288;2.794;2022-07-19T08:33:29;5.07;;;1.48;;
65092;SDS011;52025;50.288;2.794;2022-07-19T08:35:54;4.15;;;1.27;;
65092;SDS011;52025;50.288;2.794;2022-07-19T08:38:20;2.28;;;1.10;;
65092;SDS011;52025;50.288;2.794;2022-07-19T08:40:45;3.85;;;1.50;;
65092;SDS011;52025;50.288;2.794;2022-07-19T08:43:11;5.70;;;1.90;;
65092;SDS011;52025;50.288;2.794;2022-07-19T08:45:37;3.50;;;1.35;;
65092;SDS011;52025;50.288;2.794;2022-07-19T08:48:06;3.72;;;1.50;;
65092;SDS011;52025;50.288;2.794;2022-07-19T08:50:31;6.10;;;1.95;;
65092;SDS011;52025;50.288;2.794;2022-07-19T08:52:57;4.55;;;1.40;;
65092;SDS011;52025;50.288;2.794;2022-07-19T08:55:24;5.05;;;2.17;;
65092;SDS011;52025;50.288;2.794;2022-07-19T08:57:49;3.92;;;1.20;;
65092;SDS011;52025;50.288;2.794;2022-07-19T09:00:30;1.73;;;1.10;;
65092;SDS011;52025;50.288;2.794;2022-07-19T09:02:59;3.70;;;1.50;;
65092;SDS011;52025;50.288;2.794;2022-07-19T09:05:25;3.70;;;1.48;;
65092;SDS011;52025;50.288;2.794;2022-07-19T09:10:31;6.53;;;2.10;;
65092;SDS011;52025;50.288;2.794;2022-07-19T09:15:38;2.35;;;1.10;;
65092;SDS011;52025;50.288;2.794;2022-07-19T09:18:07;3.05;;;1.50;;
65092;SDS011;52025;50.288;2.794;2022-07-19T09:20:33;2.80;;;1.20;;
65092;SDS011;52025;50.288;2.794;2022-07-19T09:22:58;5.40;;;1.70;;
65092;SDS011;52025;50.288;2.794;2022-07-19T09:25:44;3.72;;;1.63;;
65092;SDS011;52025;50.288;2.794;2022-07-19T09:28:11;2.50;;;1.27;;
65092;SDS011;52025;50.288;2.794;2022-07-19T09:33:06;3.42;;;1.67;;
65092;SDS011;52025;50.288;2.794;2022-07-19T09:35:53;2.70;;;1.40;;
65092;SDS011;52025;50.288;2.794;2022-07-19T09:38:18;4.63;;;1.85;;
65092;SDS011;52025;50.288;2.794;2022-07-19T09:40:43;3.60;;;1.30;;
65092;SDS011;52025;50.288;2.794;2022-07-19T09:43:09;3.22;;;1.67;;
65092;SDS011;52025;50.288;2.794;2022-07-19T09:45:34;3.67;;;1.70;;
65092;SDS011;52025;50.288;2.794;2022-07-19T09:48:00;4.22;;;1.60;;
65092;SDS011;52025;50.288;2.794;2022-07-19T09:50:28;3.25;;;1.52;;
65092;SDS011;52025;50.288;2.794;2022-07-19T09:52:54;2.42;;;1.20;;
65092;SDS011;52025;50.288;2.794;2022-07-19T09:55:22;3.45;;;1.27;;
65092;SDS011;52025;50.288;2.794;2022-07-19T09:57:49;3.58;;;1.45;;
65092;SDS011;52025;50.288;2.794;2022-07-19T10:00:15;3.40;;;1.25;;
65092;SDS011;52025;50.288;2.794;2022-07-19T10:02:42;3.70;;;1.33;;
65092;SDS011;52025;50.288;2.794;2022-07-19T10:05:08;3.05;;;1.20;;
65092;SDS011;52025;50.288;2.794;2022-07-19T10:07:34;3.53;;;1.42;;
65092;SDS011;52025;50.288;2.794;2022-07-19T10:10:01;3.40;;;1.35;;
65092;SDS011;52025;50.288;2.794;2022-07-19T10:12:27;3.58;;;1.30;;
65092;SDS011;52025;50.288;2.794;2022-07-19T10:14:52;4.05;;;1.83;;
65092;SDS011;52025;50.288;2.794;2022-07-19T10:20:15;3.45;;;1.50;;
65092;SDS011;52025;50.288;2.794;2022-07-19T10:22:41;3.35;;;1.73;;
65092;SDS011;52025;50.288;2.794;2022-07-19T10:25:10;2.15;;;1.20;;
65092;SDS011;52025;50.288;2.794;2022-07-19T10:27:37;3.22;;;1.38;;
65092;SDS011;52025;50.288;2.794;2022-07-19T10:32:46;2.55;;;1.30;;
65092;SDS011;52025;50.288;2.794;2022-07-19T10:35:29;2.78;;;1.38;;
65092;SDS011;52025;50.288;2.794;2022-07-19T10:43:11;3.45;;;1.48;;
65092;SDS011;52025;50.288;2.794;2022-07-19T10:45:37;3.35;;;1.50;;
65092;SDS011;52025;50.288;2.794;2022-07-19T10:48:05;3.13;;;1.30;;
65092;SDS011;52025;50.288;2.794;2022-07-19T10:50:47;6.60;;;1.77;;
65092;SDS011;52025;50.288;2.794;2022-07-19T11:01:14;3.65;;;1.70;;
65092;SDS011;52025;50.288;2.794;2022-07-19T11:03:39;2.60;;;1.40;;
65092;SDS011;52025;50.288;2.794;2022-07-19T11:06:04;4.33;;;1.40;;
65092;SDS011;52025;50.288;2.794;2022-07-19T11:08:37;3.00;;;1.52;;
65092;SDS011;52025;50.288;2.794;2022-07-19T11:11:04;4.37;;;1.77;;
65092;SDS011;52025;50.288;2.794;2022-07-19T11:13:29;2.50;;;1.30;;
65092;SDS011;52025;50.288;2.794;2022-07-19T11:15:58;2.10;;;1.20;;
65092;SDS011;52025;50.288;2.794;2022-07-19T11:18:23;3.00;;;1.30;;
65092;SDS011;52025;50.288;2.794;2022-07-19T11:20:48;2.78;;;1.42;;
65092;SDS011;52025;50.288;2.794;2022-07-19T11:23:17;3.67;;;1.60;;
65092;SDS011;52025;50.288;2.794;2022-07-19T11:25:43;3.75;;;1.50;;
65092;SDS011;52025;50.288;2.794;2022-07-19T11:28:22;3.10;;;1.63;;
65092;SDS011;52025;50.288;2.794;2022-07-19T11:30:47;3.47;;;1.63;;
65092;SDS011;52025;50.288;2.794;2022-07-19T11:33:15;3.60;;;2.03;;
65092;SDS011;52025;50.288;2.794;2022-07-19T11:35:40;3.40;;;1.40;;
65092;SDS011;52025;50.288;2.794;2022-07-19T11:38:16;2.97;;;1.63;;
65092;SDS011;52025;50.288;2.794;2022-07-19T11:40:42;3.28;;;1.48;;
65092;SDS011;52025;50.288;2.794;2022-07-19T11:43:07;2.65;;;1.40;;
65092;SDS011;52025;50.288;2.794;2022-07-19T11:45:40;4.05;;;1.30;;
65092;SDS011;52025;50.288;2.794;2022-07-19T11:48:05;3.27;;;1.50;;
65092;SDS011;52025;50.288;2.794;2022-07-19T11:50:30;3.45;;;1.65;;
65092;SDS011;52025;50.288;2.794;2022-07-19T11:52:57;2.80;;;1.30;;
65092;SDS011;52025;50.288;2.794;2022-07-19T11:55:26;3.00;;;1.80;;
65092;SDS011;52025;50.288;2.794;2022-07-19T11:57:52;3.55;;;1.77;;
65092;SDS011;52025;50.288;2.794;2022-07-19T12:00:17;2.92;;;1.70;;
65092;SDS011;52025;50.288;2.794;2022-07-19T12:05:15;3.60;;;1.40;;
65092;SDS011;52025;50.288;2.794;2022-07-19T12:07:44;4.63;;;1.98;;
65092;SDS011;52025;50.288;2.794;2022-07-19T12:10:09;2.42;;;1.50;;
65092;SDS011;52025;50.288;2.794;2022-07-19T12:12:39;3.20;;;1.60;;
65092;SDS011;52025;50.288;2.794;2022-07-19T12:15:05;3.40;;;1.70;;
65092;SDS011;52025;50.288;2.794;2022-07-19T12:17:31;3.78;;;1.70;;
65092;SDS011;52025;50.288;2.794;2022-07-19T12:20:09;3.95;;;1.38;;
65092;SDS011;52025;50.288;2.794;2022-07-19T12:22:36;4.15;;;1.73;;
65092;SDS011;52025;50.288;2.794;2022-07-19T12:25:02;2.55;;;1.38;;
65092;SDS011;52025;50.288;2.794;2022-07-19T12:27:28;3.65;;;1.52;;
65092;SDS011;52025;50.288;2.794;2022-07-19T12:29:54;3.25;;;1.67;;
65092;SDS011;52025;50.288;2.794;2022-07-19T12:34:53;3.28;;;1.73;;
65092;SDS011;52025;50.288;2.794;2022-07-19T12:37:28;3.92;;;1.70;;
65092;SDS011;52025;50.288;2.794;2022-07-19T12:40:05;3.90;;;1.65;;
65092;SDS011;52025;50.288;2.794;2022-07-19T12:42:37;3.80;;;1.50;;
65092;SDS011;52025;50.288;2.794;2022-07-19T12:45:06;2.72;;;1.50;;
65092;SDS011;52025;50.288;2.794;2022-07-19T12:47:32;3.45;;;1.60;;
65092;SDS011;52025;50.288;2.794;2022-07-19T12:49:57;4.15;;;1.80;;
65092;SDS011;52025;50.288;2.794;2022-07-19T12:52:22;2.97;;;1.73;;
65092;SDS011;52025;50.288;2.794;2022-07-19T12:54:47;2.92;;;1.80;;
65092;SDS011;52025;50.288;2.794;2022-07-19T12:57:13;3.38;;;1.60;;
65092;SDS011;52025;50.288;2.794;2022-07-19T12:59:38;4.57;;;1.92;;
65092;SDS011;52025;50.288;2.794;2022-07-19T13:02:03;2.17;;;1.20;;
65092;SDS011;52025;50.288;2.794;2022-07-19T13:04:29;3.22;;;1.33;;
65092;SDS011;52025;50.288;2.794;2022-07-19T13:06:54;2.72;;;1.55;;
65092;SDS011;52025;50.288;2.794;2022-07-19T13:09:19;4.35;;;1.90;;
65092;SDS011;52025;50.288;2.794;2022-07-19T13:11:45;3.15;;;1.90;;
65092;SDS011;52025;50.288;2.794;2022-07-19T13:14:10;4.82;;;1.83;;
65092;SDS011;52025;50.288;2.794;2022-07-19T13:16:39;3.63;;;1.80;;
65092;SDS011;52025;50.288;2.794;2022-07-19T13:19:05;3.58;;;1.60;;
65092;SDS011;52025;50.288;2.794;2022-07-19T13:21:30;2.47;;;1.42;;
65092;SDS011;52025;50.288;2.794;2022-07-19T13:23:55;3.88;;;2.05;;
65092;SDS011;52025;50.288;2.794;2022-07-19T13:26:21;2.92;;;1.60;;
65092;SDS011;52025;50.288;2.794;2022-07-19T13:28:46;3.65;;;1.70;;
65092;SDS011;52025;50.288;2.794;2022-07-19T13:31:11;4.80;;;1.90;;
65092;SDS011;52025;50.288;2.794;2022-07-19T13:33:39;2.92;;;1.67;;
65092;SDS011;52025;50.288;2.794;2022-07-19T13:36:04;4.25;;;1.85;;
65092;SDS011;52025;50.288;2.794;2022-07-19T13:38:30;4.10;;;1.90;;
65092;SDS011;52025;50.288;2.794;2022-07-19T13:40:55;3.80;;;1.80;;
65092;SDS011;52025;50.288;2.794;2022-07-19T13:43:23;3.92;;;1.77;;
65092;SDS011;52025;50.288;2.794;2022-07-19T13:45:48;3.42;;;1.88;;
65092;SDS011;52025;50.288;2.794;2022-07-19T13:48:15;4.55;;;2.30;;
65092;SDS011;52025;50.288;2.794;2022-07-19T13:50:40;4.30;;;1.85;;
65092;SDS011;52025;50.288;2.794;2022-07-19T13:53:06;4.15;;;1.92;;
65092;SDS011;52025;50.288;2.794;2022-07-19T13:55:31;3.13;;;1.80;;
65092;SDS011;52025;50.288;2.794;2022-07-19T13:57:57;4.22;;;2.08;;
65092;SDS011;52025;50.288;2.794;2022-07-19T14:00:24;3.10;;;1.80;;
65092;SDS011;52025;50.288;2.794;2022-07-19T14:02:50;2.75;;;1.67;;
65092;SDS011;52025;50.288;2.794;2022-07-19T14:05:15;3.88;;;1.88;;
65092;SDS011;52025;50.288;2.794;2022-07-19T14:07:41;3.22;;;1.75;;
65092;SDS011;52025;50.288;2.794;2022-07-19T14:10:06;4.25;;;1.58;;
65092;SDS011;52025;50.288;2.794;2022-07-19T14:12:32;4.18;;;2.08;;
65092;SDS011;52025;50.288;2.794;2022-07-19T14:14:57;2.58;;;1.63;;
65092;SDS011;52025;50.288;2.794;2022-07-19T14:17:22;3.67;;;1.60;;
65092;SDS011;52025;50.288;2.794;2022-07-19T14:19:47;4.87;;;2.20;;
65092;SDS011;52025;50.288;2.794;2022-07-19T14:22:13;3.83;;;2.17;;
65092;SDS011;52025;50.288;2.794;2022-07-19T14:24:38;3.90;;;1.75;;
65092;SDS011;52025;50.288;2.794;2022-07-19T14:27:03;3.20;;;1.93;;
65092;SDS011;52025;50.288;2.794;2022-07-19T14:29:29;4.38;;;1.90;;
65092;SDS011;52025;50.288;2.794;2022-07-19T14:31:54;2.58;;;1.35;;
65092;SDS011;52025;50.288;2.794;2022-07-19T14:34:19;3.30;;;1.70;;
65092;SDS011;52025;50.288;2.794;2022-07-19T14:36:45;3.38;;;1.80;;
65092;SDS011;52025;50.288;2.794;2022-07-19T14:39:10;3.65;;;1.80;;
65092;SDS011;52025;50.288;2.794;2022-07-19T14:41:36;2.22;;;1.50;;
65092;SDS011;52025;50.288;2.794;2022-07-19T14:44:01;4.03;;;2.22;;
65092;SDS011;52025;50.288;2.794;2022-07-19T14:46:26;3.28;;;1.85;;
65092;SDS011;52025;50.288;2.794;2022-07-19T14:48:51;4.28;;;1.90;;
65092;SDS011;52025;50.288;2.794;2022-07-19T14:51:17;3.30;;;1.70;;
65092;SDS011;52025;50.288;2.794;2022-07-19T14:53:42;3.42;;;1.83;;
65092;SDS011;52025;50.288;2.794;2022-07-19T14:56:07;2.37;;;1.40;;
65092;SDS011;52025;50.288;2.794;2022-07-19T14:58:32;2.50;;;1.30;;
65092;SDS011;52025;50.288;2.794;2022-07-19T15:00:58;3.47;;;1.80;;
65092;SDS011;52025;50.288;2.794;2022-07-19T15:03:23;2.93;;;1.63;;
65092;SDS011;52025;50.288;2.794;2022-07-19T15:05:48;2.50;;;1.60;;
65092;SDS011;52025;50.288;2.794;2022-07-19T15:08:13;3.87;;;1.70;;
65092;SDS011;52025;50.288;2.794;2022-07-19T15:10:39;2.90;;;1.52;;
65092;SDS011;52025;50.288;2.794;2022-07-19T15:13:04;3.03;;;1.55;;
65092;SDS011;52025;50.288;2.794;2022-07-19T15:15:29;2.57;;;1.43;;
65092;SDS011;52025;50.288;2.794;2022-07-19T15:17:54;3.03;;;1.80;;
65092;SDS011;52025;50.288;2.794;2022-07-19T15:20:20;3.77;;;1.50;;
65092;SDS011;52025;50.288;2.794;2022-07-19T15:22:47;3.78;;;1.83;;
65092;SDS011;52025;50.288;2.794;2022-07-19T15:25:12;2.70;;;1.60;;
65092;SDS011;52025;50.288;2.794;2022-07-19T15:27:40;2.67;;;1.40;;
65092;SDS011;52025;50.288;2.794;2022-07-19T15:30:05;3.27;;;1.60;;
65092;SDS011;52025;50.288;2.794;2022-07-19T15:32:31;3.38;;;1.73;;
65092;SDS011;52025;50.288;2.794;2022-07-19T15:34:56;3.60;;;1.85;;
65092;SDS011;52025;50.288;2.794;2022-07-19T15:37:22;2.78;;;1.45;;
65092;SDS011;52025;50.288;2.794;2022-07-19T15:39:47;3.80;;;1.75;;
65092;SDS011;52025;50.288;2.794;2022-07-19T15:42:12;3.67;;;1.50;;
65092;SDS011;52025;50.288;2.794;2022-07-19T15:44:37;3.97;;;1.63;;
65092;SDS011;52025;50.288;2.794;2022-07-19T15:47:03;4.25;;;1.60;;
65092;SDS011;52025;50.288;2.794;2022-07-19T15:49:28;2.80;;;1.50;;
65092;SDS011;52025;50.288;2.794;2022-07-19T15:51:53;3.03;;;1.37;;
65092;SDS011;52025;50.288;2.794;2022-07-19T15:54:19;3.58;;;1.60;;
65092;SDS011;52025;50.288;2.794;2022-07-19T15:56:45;3.92;;;1.50;;
65092;SDS011;52025;50.288;2.794;2022-07-19T15:59:13;3.28;;;1.55;;
65092;SDS011;52025;50.288;2.794;2022-07-19T16:01:38;3.40;;;1.60;;
65092;SDS011;52025;50.288;2.794;2022-07-19T16:04:04;2.97;;;1.50;;
65092;SDS011;52025;50.288;2.794;2022-07-19T16:06:29;3.92;;;1.60;;
65092;SDS011;52025;50.288;2.794;2022-07-19T16:08:54;2.80;;;1.30;;
65092;SDS011;52025;50.288;2.794;2022-07-19T16:11:19;2.50;;;1.37;;
65092;SDS011;52025;50.288;2.794;2022-07-19T16:13:45;2.25;;;1.50;;
65092;SDS011;52025;50.288;2.794;2022-07-19T16:16:10;1.85;;;1.10;;
65092;SDS011;52025;50.288;2.794;2022-07-19T16:18:35;2.38;;;1.42;;
65092;SDS011;52025;50.288;2.794;2022-07-19T16:21:00;4.68;;;1.85;;
65092;SDS011;52025;50.288;2.794;2022-07-19T16:23:26;2.53;;;1.42;;
65092;SDS011;52025;50.288;2.794;2022-07-19T16:25:51;4.72;;;1.50;;
65092;SDS011;52025;50.288;2.794;2022-07-19T16:28:17;2.05;;;1.20;;
65092;SDS011;52025;50.288;2.794;2022-07-19T16:30:42;3.00;;;1.40;;
65092;SDS011;52025;50.288;2.794;2022-07-19T16:33:07;3.92;;;1.60;;
65092;SDS011;52025;50.288;2.794;2022-07-19T16:35:33;3.28;;;1.40;;
65092;SDS011;52025;50.288;2.794;2022-07-19T16:37:58;2.75;;;1.50;;
65092;SDS011;52025;50.288;2.794;2022-07-19T16:40:23;2.60;;;1.20;;
65092;SDS011;52025;50.288;2.794;2022-07-19T16:42:48;2.05;;;1.30;;
65092;SDS011;52025;50.288;2.794;2022-07-19T16:45:14;2.58;;;1.40;;
65092;SDS011;52025;50.288;2.794;2022-07-19T16:47:39;2.25;;;1.10;;
65092;SDS011;52025;50.288;2.794;2022-07-19T16:50:06;2.72;;;1.23;;
65092;SDS011;52025;50.288;2.794;2022-07-19T16:52:31;2.00;;;1.05;;
65092;SDS011;52025;50.288;2.794;2022-07-19T16:54:57;2.97;;;1.60;;
65092;SDS011;52025;50.288;2.794;2022-07-19T16:57:22;3.47;;;1.70;;
65092;SDS011;52025;50.288;2.794;2022-07-19T16:59:47;2.90;;;1.42;;
65092;SDS011;52025;50.288;2.794;2022-07-19T17:02:12;1.63;;;1.20;;
65092;SDS011;52025;50.288;2.794;2022-07-19T17:04:38;2.17;;;1.38;;
65092;SDS011;52025;50.288;2.794;2022-07-19T17:07:05;3.28;;;1.48;;
65092;SDS011;52025;50.288;2.794;2022-07-19T17:09:30;4.45;;;1.60;;
65092;SDS011;52025;50.288;2.794;2022-07-19T17:11:55;2.67;;;1.50;;
65092;SDS011;52025;50.288;2.794;2022-07-19T17:14:21;2.67;;;1.40;;
65092;SDS011;52025;50.288;2.794;2022-07-19T17:16:46;3.47;;;1.65;;
65092;SDS011;52025;50.288;2.794;2022-07-19T17:19:11;2.53;;;1.30;;
65092;SDS011;52025;50.288;2.794;2022-07-19T17:21:37;2.63;;;1.17;;
65092;SDS011;52025;50.288;2.794;2022-07-19T17:24:02;2.55;;;1.38;;
65092;SDS011;52025;50.288;2.794;2022-07-19T17:26:28;2.28;;;1.40;;
65092;SDS011;52025;50.288;2.794;2022-07-19T17:28:53;3.28;;;1.40;;
65092;SDS011;52025;50.288;2.794;2022-07-19T17:31:18;3.30;;;1.55;;
65092;SDS011;52025;50.288;2.794;2022-07-19T17:33:43;2.55;;;1.52;;
65092;SDS011;52025;50.288;2.794;2022-07-19T17:36:09;2.83;;;1.38;;
65092;SDS011;52025;50.288;2.794;2022-07-19T17:38:34;2.90;;;1.55;;
65092;SDS011;52025;50.288;2.794;2022-07-19T17:41:01;2.83;;;1.30;;
65092;SDS011;52025;50.288;2.794;2022-07-19T17:43:26;2.35;;;1.23;;
65092;SDS011;52025;50.288;2.794;2022-07-19T17:45:52;2.07;;;1.27;;
65092;SDS011;52025;50.288;2.794;2022-07-19T17:48:17;2.30;;;1.27;;
65092;SDS011;52025;50.288;2.794;2022-07-19T17:50:42;3.10;;;1.35;;
65092;SDS011;52025;50.288;2.794;2022-07-19T17:53:08;2.97;;;1.30;;
65092;SDS011;52025;50.288;2.794;2022-07-19T17:55:33;2.15;;;1.10;;
65092;SDS011;52025;50.288;2.794;2022-07-19T17:57:58;3.15;;;1.20;;
65092;SDS011;52025;50.288;2.794;2022-07-19T18:00:23;2.38;;;1.40;;
65092;SDS011;52025;50.288;2.794;2022-07-19T18:02:52;2.13;;;1.30;;
65092;SDS011;52025;50.288;2.794;2022-07-19T18:05:18;2.97;;;1.60;;
65092;SDS011;52025;50.288;2.794;2022-07-19T18:07:43;1.85;;;1.20;;
65092;SDS011;52025;50.288;2.794;2022-07-19T18:10:08;1.90;;;1.10;;
65092;SDS011;52025;50.288;2.794;2022-07-19T18:12:33;1.77;;;1.02;;
65092;SDS011;52025;50.288;2.794;2022-07-19T18:14:59;2.53;;;1.10;;
65092;SDS011;52025;50.288;2.794;2022-07-19T18:17:24;2.40;;;1.17;;
65092;SDS011;52025;50.288;2.794;2022-07-19T18:19:49;2.85;;;1.35;;
65092;SDS011;52025;50.288;2.794;2022-07-19T18:22:14;1.70;;;1.00;;
65092;SDS011;52025;50.288;2.794;2022-07-19T18:24:40;2.13;;;1.20;;
65092;SDS011;52025;50.288;2.794;2022-07-19T18:27:06;2.20;;;1.10;;
65092;SDS011;52025;50.288;2.794;2022-07-19T18:29:31;3.10;;;1.40;;
65092;SDS011;52025;50.288;2.794;2022-07-19T18:31:57;2.30;;;1.15;;
65092;SDS011;52025;50.288;2.794;2022-07-19T18:34:22;2.10;;;1.10;;
65092;SDS011;52025;50.288;2.794;2022-07-19T18:36:47;2.83;;;1.20;;
65092;SDS011;52025;50.288;2.794;2022-07-19T18:39:17;2.15;;;1.20;;
65092;SDS011;52025;50.288;2.794;2022-07-19T18:41:42;1.15;;;0.95;;
65092;SDS011;52025;50.288;2.794;2022-07-19T18:44:08;1.85;;;1.10;;
65092;SDS011;52025;50.288;2.794;2022-07-19T18:46:33;1.30;;;1.10;;
65092;SDS011;52025;50.288;2.794;2022-07-19T18:48:58;1.70;;;0.90;;
65092;SDS011;52025;50.288;2.794;2022-07-19T18:51:24;1.65;;;1.15;;
65092;SDS011;52025;50.288;2.794;2022-07-19T18:53:49;1.73;;;1.05;;
65092;SDS011;52025;50.288;2.794;2022-07-19T18:56:15;2.28;;;1.20;;
65092;SDS011;52025;50.288;2.794;2022-07-19T18:58:40;2.30;;;1.30;;
65092;SDS011;52025;50.288;2.794;2022-07-19T19:01:05;2.27;;;1.30;;
65092;SDS011;52025;50.288;2.794;2022-07-19T19:03:30;1.65;;;1.20;;
65092;SDS011;52025;50.288;2.794;2022-07-19T19:05:56;1.73;;;0.98;;
65092;SDS011;52025;50.288;2.794;2022-07-19T19:08:22;1.65;;;0.98;;
65092;SDS011;52025;50.288;2.794;2022-07-19T19:10:47;1.20;;;0.95;;
65092;SDS011;52025;50.288;2.794;2022-07-19T19:13:13;1.65;;;1.00;;
65092;SDS011;52025;50.288;2.794;2022-07-19T19:15:38;2.67;;;1.10;;
65092;SDS011;52025;50.288;2.794;2022-07-19T19:18:05;1.95;;;1.00;;
65092;SDS011;52025;50.288;2.794;2022-07-19T19:20:30;2.50;;;0.88;;
65092;SDS011;52025;50.288;2.794;2022-07-19T19:22:56;4.53;;;2.20;;
65092;SDS011;52025;50.288;2.794;2022-07-19T19:25:21;38.60;;;7.05;;
65092;SDS011;52025;50.288;2.794;2022-07-19T19:27:46;16.60;;;4.90;;
65092;SDS011;52025;50.288;2.794;2022-07-19T19:30:12;52.75;;;8.50;;
65092;SDS011;52025;50.288;2.794;2022-07-19T19:32:38;20.85;;;8.30;;
65092;SDS011;52025;50.288;2.794;2022-07-19T19:35:03;21.48;;;9.38;;
65092;SDS011;52025;50.288;2.794;2022-07-19T19:37:29;19.17;;;9.68;;
65092;SDS011;52025;50.288;2.794;2022-07-19T19:39:54;20.90;;;10.50;;
65092;SDS011;52025;50.288;2.794;2022-07-19T19:42:19;23.33;;;11.45;;
65092;SDS011;52025;50.288;2.794;2022-07-19T19:44:45;19.35;;;13.10;;
65092;SDS011;52025;50.288;2.794;2022-07-19T19:47:10;23.15;;;12.23;;
65092;SDS011;52025;50.288;2.794;2022-07-19T19:49:36;22.75;;;13.40;;
65092;SDS011;52025;50.288;2.794;2022-07-19T19:52:02;20.88;;;12.15;;